createdAt,value
2022-12-17T00:02:37.951Z,20.37
2022-12-17T00:05:24.125Z,22.63
2022-12-17T00:08:19.885Z,20.97
2022-12-17T00:11:05.714Z,21.80
2022-12-17T00:13:51.598Z,21.10
2022-12-17T00:16:37.777Z,22.60
2022-12-17T00:19:23.303Z,20.20
2022-12-17T00:22:08.941Z,20.23
2022-12-17T00:24:56.369Z,19.93
2022-12-17T00:27:42.173Z,20.53
2022-12-17T00:30:28.203Z,22.20
2022-12-17T00:33:13.971Z,22.50
2022-12-17T00:36:00.014Z,20.30
2022-12-17T00:38:45.916Z,21.17
2022-12-17T00:41:31.642Z,22.80
2022-12-17T00:44:17.631Z,19.20
2022-12-17T00:47:03.264Z,21.10
2022-12-17T00:49:48.970Z,20.90
2022-12-17T00:52:34.628Z,21.80
2022-12-17T00:55:20.402Z,21.27
2022-12-17T00:58:10.434Z,21.10
2022-12-17T01:00:56.287Z,22.67
2022-12-17T01:03:42.214Z,22.00
2022-12-17T01:06:28.573Z,23.23
2022-12-17T01:09:14.485Z,23.13
2022-12-17T01:12:00.004Z,22.07
2022-12-17T01:14:46.269Z,22.17
2022-12-17T01:17:32.083Z,21.83
2022-12-17T01:20:17.866Z,22.97
2022-12-17T01:23:04.679Z,22.93
2022-12-17T01:25:50.336Z,22.60
2022-12-17T01:28:43.485Z,22.00
2022-12-17T01:31:34.540Z,22.70
2022-12-17T01:34:21.253Z,21.17
2022-12-17T01:37:07.093Z,22.20
2022-12-17T01:39:52.814Z,22.13
2022-12-17T01:42:38.462Z,21.17
2022-12-17T01:45:29.599Z,21.70
2022-12-17T01:48:20.435Z,20.80
2022-12-17T01:51:13.643Z,21.30
2022-12-17T01:54:08.661Z,20.83
2022-12-17T01:56:58.889Z,21.73
2022-12-17T02:00:01.240Z,21.03
2022-12-17T02:02:46.792Z,20.83
2022-12-17T02:05:32.744Z,20.77
2022-12-17T02:08:30.348Z,20.17
2022-12-17T02:11:49.259Z,20.37
2022-12-17T02:14:45.756Z,20.00
2022-12-17T02:17:40.356Z,21.00
2022-12-17T02:20:50.740Z,20.40
2022-12-17T02:23:48.080Z,19.17
2022-12-17T02:27:13.372Z,21.03
2022-12-17T02:30:11.734Z,18.67
2022-12-17T02:33:01.965Z,19.13
2022-12-17T02:35:57.957Z,18.47
2022-12-17T02:38:49.465Z,20.37
2022-12-17T02:41:45.480Z,19.37
2022-12-17T02:44:33.018Z,20.30
2022-12-17T02:47:21.120Z,18.43
2022-12-17T02:50:07.145Z,18.77
2022-12-17T02:52:58.370Z,18.63
2022-12-17T02:55:43.956Z,20.33
2022-12-17T02:58:29.397Z,19.27
2022-12-17T03:01:15.025Z,19.87
2022-12-17T03:04:01.004Z,20.37
2022-12-17T03:06:46.711Z,20.87
2022-12-17T03:09:32.474Z,22.87
2022-12-17T03:12:17.940Z,21.87
2022-12-17T03:15:03.799Z,21.63
2022-12-17T03:17:49.960Z,22.93
2022-12-17T03:20:35.730Z,22.20
2022-12-17T03:23:27.894Z,20.97
2022-12-17T03:26:17.260Z,21.40
2022-12-17T03:29:02.891Z,21.70
2022-12-17T03:31:48.684Z,22.07
2022-12-17T03:34:34.227Z,21.17
2022-12-17T03:37:19.694Z,20.37
2022-12-17T03:40:05.175Z,20.63
2022-12-17T03:42:50.970Z,20.27
2022-12-17T03:45:36.651Z,19.60
2022-12-17T03:48:33.163Z,20.13
2022-12-17T03:51:19.403Z,19.00
2022-12-17T03:54:06.419Z,21.37
2022-12-17T03:56:52.186Z,19.53
2022-12-17T03:59:37.715Z,19.30
2022-12-17T04:02:23.654Z,19.43
2022-12-17T04:05:11.808Z,18.13
2022-12-17T04:08:17.821Z,18.63
2022-12-17T04:11:03.265Z,19.50
2022-12-17T04:13:49.111Z,18.60
2022-12-17T04:16:34.868Z,17.57
2022-12-17T04:19:20.379Z,18.47
2022-12-17T04:22:06.076Z,18.90
2022-12-17T04:24:51.657Z,18.20
2022-12-17T04:27:37.210Z,18.03
2022-12-17T04:30:23.328Z,19.23
2022-12-17T04:33:09.174Z,17.07
2022-12-17T04:35:54.902Z,17.67
2022-12-17T04:38:40.530Z,17.87
2022-12-17T04:41:26.117Z,17.40
2022-12-17T04:44:19.392Z,18.40
2022-12-17T04:47:05.133Z,19.60
2022-12-17T04:49:50.994Z,18.80
2022-12-17T04:52:36.596Z,17.93
2022-12-17T04:55:22.538Z,17.30
2022-12-17T04:58:08.324Z,18.17
2022-12-17T05:00:53.879Z,18.43
2022-12-17T05:03:40.154Z,18.67
2022-12-17T05:06:28.003Z,17.70
2022-12-17T05:09:13.398Z,18.67
2022-12-17T05:11:59.315Z,17.13
2022-12-17T05:14:44.657Z,16.57
2022-12-17T05:17:30.415Z,18.07
2022-12-17T05:20:16.004Z,17.37
2022-12-17T05:23:01.511Z,18.60
2022-12-17T05:25:46.969Z,16.43
2022-12-17T05:28:32.523Z,18.37
2022-12-17T05:31:18.414Z,18.33
2022-12-17T05:34:08.523Z,19.23
2022-12-17T05:36:54.299Z,19.00
2022-12-17T05:39:39.969Z,18.57
2022-12-17T05:42:25.818Z,19.00
2022-12-17T05:45:11.302Z,17.90
2022-12-17T05:47:56.691Z,19.37
2022-12-17T05:50:42.496Z,19.50
2022-12-17T05:53:28.112Z,18.60
2022-12-17T05:56:13.911Z,18.50
2022-12-17T05:58:59.450Z,17.83
2022-12-17T06:01:44.954Z,19.03
2022-12-17T06:04:30.826Z,17.87
2022-12-17T06:07:16.710Z,17.97
2022-12-17T06:10:02.600Z,18.10
2022-12-17T06:12:48.079Z,17.10
2022-12-17T06:15:33.671Z,17.60
2022-12-17T06:18:19.426Z,19.03
2022-12-17T06:21:05.034Z,18.47
2022-12-17T06:23:50.895Z,18.20
2022-12-17T06:26:37.926Z,19.80
2022-12-17T06:29:23.668Z,18.77
2022-12-17T06:32:09.235Z,18.80
2022-12-17T06:34:54.897Z,19.33
2022-12-17T06:37:40.712Z,17.67
2022-12-17T06:40:26.939Z,20.13
2022-12-17T06:43:16.274Z,18.13
2022-12-17T06:46:01.983Z,20.20
2022-12-17T06:48:47.865Z,17.63
2022-12-17T06:51:33.380Z,19.87
2022-12-17T06:54:18.917Z,18.67
2022-12-17T06:57:04.520Z,19.23
2022-12-17T06:59:50.062Z,18.83
2022-12-17T07:02:35.886Z,19.70
2022-12-17T07:05:21.493Z,18.37
2022-12-17T07:08:07.107Z,17.80
2022-12-17T07:10:52.728Z,19.27
2022-12-17T07:13:39.865Z,17.50
2022-12-17T07:16:25.951Z,17.43
2022-12-17T07:19:11.867Z,17.53
2022-12-17T07:21:57.572Z,18.23
2022-12-17T07:24:43.393Z,17.17
2022-12-17T07:27:28.903Z,18.43
2022-12-17T07:30:14.676Z,17.53
2022-12-17T07:33:00.160Z,18.47
2022-12-17T07:35:45.716Z,17.90
2022-12-17T07:38:32.326Z,18.03
2022-12-17T07:41:18.257Z,18.80
2022-12-17T07:44:03.900Z,18.23
2022-12-17T07:46:49.369Z,16.23
2022-12-17T07:49:34.824Z,17.50
2022-12-17T07:52:20.366Z,18.17
2022-12-17T07:55:05.807Z,18.57
2022-12-17T07:57:51.688Z,17.70
2022-12-17T08:00:37.278Z,17.87
2022-12-17T08:03:23.063Z,18.37
2022-12-17T08:06:08.638Z,17.67
2022-12-17T08:08:54.076Z,18.07
2022-12-17T08:11:40.250Z,18.00
2022-12-17T08:14:25.764Z,18.10
2022-12-17T08:17:11.657Z,16.90
2022-12-17T08:19:57.223Z,16.53
2022-12-17T08:22:42.746Z,15.60
2022-12-17T08:25:28.617Z,16.97
2022-12-17T08:28:48.994Z,17.43
2022-12-17T08:31:24.970Z,17.43
2022-12-17T08:34:10.674Z,17.20
2022-12-17T08:36:56.493Z,16.30
2022-12-17T08:39:42.313Z,17.00
2022-12-17T08:42:28.125Z,17.60
2022-12-17T08:45:14.026Z,17.03
2022-12-17T08:48:03.840Z,16.67
2022-12-17T08:50:50.110Z,17.87
2022-12-17T08:53:35.697Z,17.30
2022-12-17T08:56:21.196Z,16.23
2022-12-17T08:59:06.676Z,19.63
2022-12-17T09:01:52.369Z,18.60
2022-12-17T09:04:37.975Z,18.53
2022-12-17T09:07:23.655Z,19.07
2022-12-17T09:10:09.405Z,18.23
2022-12-17T09:12:57.555Z,18.07
2022-12-17T09:15:47.146Z,18.23
2022-12-17T09:18:51.159Z,19.30
2022-12-17T09:21:36.632Z,20.27
2022-12-17T09:24:22.287Z,19.77
2022-12-17T09:27:07.887Z,21.47
2022-12-17T09:29:53.366Z,18.10
2022-12-17T09:32:39.522Z,17.10
2022-12-17T09:35:25.101Z,18.77
2022-12-17T09:38:15.345Z,18.13
2022-12-17T09:41:07.013Z,18.87
2022-12-17T09:44:44.551Z,19.70
2022-12-17T09:48:03.122Z,19.00
2022-12-17T09:50:48.939Z,20.53
2022-12-17T09:54:10.216Z,20.03
2022-12-17T09:56:57.882Z,20.80
2022-12-17T09:59:52.888Z,22.70
2022-12-17T10:02:50.021Z,20.80
2022-12-17T10:05:47.530Z,21.63
2022-12-17T10:08:38.755Z,20.97
2022-12-17T10:11:45.290Z,19.73
2022-12-17T10:14:42.325Z,19.50
2022-12-17T10:17:38.489Z,19.27
2022-12-17T10:20:51.588Z,17.13
2022-12-17T10:23:50.154Z,18.53
2022-12-17T10:26:48.994Z,17.87
2022-12-17T10:29:48.177Z,20.57
2022-12-17T10:32:34.102Z,18.33
2022-12-17T10:35:26.293Z,17.17
2022-12-17T10:38:12.622Z,18.13
2022-12-17T10:40:58.358Z,17.40
2022-12-17T10:43:57.768Z,17.40
2022-12-17T10:46:51.289Z,15.47
2022-12-17T10:49:43.472Z,17.80
2022-12-17T10:52:48.292Z,18.53
2022-12-17T10:55:48.117Z,18.60
2022-12-17T10:58:46.320Z,19.33
2022-12-17T11:01:42.867Z,18.90
2022-12-17T11:04:52.009Z,18.83
2022-12-17T11:07:57.377Z,19.53
2022-12-17T11:10:49.544Z,17.93
2022-12-17T11:13:53.039Z,18.37
2022-12-17T11:17:05.780Z,20.20
2022-12-17T11:20:00.870Z,19.13
2022-12-17T11:22:58.071Z,19.13
2022-12-17T11:26:16.121Z,19.77
2022-12-17T11:29:01.972Z,18.87
2022-12-17T11:32:24.897Z,22.97
2022-12-17T11:35:24.562Z,20.10
2022-12-17T11:38:22.835Z,18.60
2022-12-17T11:41:20.064Z,18.13
2022-12-17T11:44:28.693Z,17.77
2022-12-17T11:47:45.503Z,19.47
2022-12-17T11:50:53.530Z,19.43
2022-12-17T11:54:23.532Z,17.77
2022-12-17T11:57:26.658Z,17.60
2022-12-17T12:00:27.913Z,16.83
2022-12-17T12:03:48.520Z,18.07
2022-12-17T12:07:06.825Z,19.20
2022-12-17T12:10:10.875Z,17.70
2022-12-17T12:13:15.525Z,19.97
2022-12-17T12:16:37.089Z,17.17
2022-12-17T12:20:06.169Z,17.10
2022-12-17T12:23:14.233Z,16.93
2022-12-17T12:26:24.468Z,18.70
2022-12-17T12:29:57.744Z,16.00
2022-12-17T12:33:35.408Z,17.30
2022-12-17T12:36:24.631Z,16.47
2022-12-17T12:39:14.357Z,16.03
2022-12-17T12:42:38.284Z,16.83
2022-12-17T12:45:35.671Z,16.60
2022-12-17T12:48:39.327Z,16.03
2022-12-17T12:51:48.327Z,18.00
2022-12-17T12:55:23.067Z,16.33
2022-12-17T12:58:46.634Z,17.47
2022-12-17T13:01:32.404Z,17.30
2022-12-17T13:04:33.023Z,16.27
2022-12-17T13:07:00.080Z,18.63
2022-12-17T13:09:30.890Z,18.17
2022-12-17T13:12:04.343Z,20.10
2022-12-17T13:15:02.514Z,18.70
2022-12-17T13:18:17.962Z,18.73
2022-12-17T13:21:03.674Z,19.63
2022-12-17T13:23:35.013Z,20.13
2022-12-17T13:26:17.217Z,19.17
2022-12-17T13:28:59.024Z,18.97
2022-12-17T13:32:06.081Z,21.70
2022-12-17T13:35:21.728Z,21.27
2022-12-17T13:38:42.582Z,22.07
2022-12-17T13:41:14.202Z,22.00
2022-12-17T13:43:52.850Z,21.83
2022-12-17T13:46:46.624Z,21.23
2022-12-17T13:49:26.898Z,19.67
2022-12-17T13:52:18.813Z,20.20
2022-12-17T13:54:46.394Z,18.47
2022-12-17T13:57:22.977Z,17.83
2022-12-17T14:00:02.543Z,18.53
2022-12-17T14:02:32.706Z,18.93
2022-12-17T14:05:08.088Z,21.03
2022-12-17T14:07:39.465Z,18.67
2022-12-17T14:10:18.371Z,19.00
2022-12-17T14:12:46.130Z,20.27
2022-12-17T14:15:25.743Z,18.90
2022-12-17T14:17:55.039Z,19.03
2022-12-17T14:20:35.550Z,21.47
2022-12-17T14:23:23.647Z,19.30
2022-12-17T14:25:50.917Z,18.00
2022-12-17T14:28:36.075Z,18.37
2022-12-17T14:31:26.527Z,18.90
2022-12-17T14:34:11.443Z,20.03
2022-12-17T14:36:43.934Z,17.73
2022-12-17T14:39:29.118Z,18.30
2022-12-17T14:42:25.854Z,18.83
2022-12-17T14:45:06.891Z,18.43
2022-12-17T14:47:37.518Z,18.13
2022-12-17T14:50:23.583Z,19.50
2022-12-17T14:52:57.540Z,18.67
2022-12-17T14:55:39.414Z,19.30
2022-12-17T14:58:12.282Z,18.17
2022-12-17T15:00:55.639Z,19.20
2022-12-17T15:03:29.951Z,18.37
2022-12-17T15:06:14.857Z,18.20
2022-12-17T15:08:46.286Z,17.97
2022-12-17T15:11:16.818Z,19.37
2022-12-17T15:13:43.918Z,21.37
2022-12-17T15:16:11.611Z,22.33
2022-12-17T15:18:39.261Z,22.10
2022-12-17T15:21:06.635Z,19.43
2022-12-17T15:23:33.683Z,19.27
2022-12-17T15:26:00.649Z,19.83
2022-12-17T15:28:27.685Z,21.13
2022-12-17T15:30:54.985Z,19.47
2022-12-17T15:33:21.979Z,20.00
2022-12-17T15:35:48.989Z,19.97
2022-12-17T15:38:15.930Z,21.00
2022-12-17T15:40:43.040Z,19.10
2022-12-17T15:43:13.664Z,19.47
2022-12-17T15:45:47.176Z,20.27
2022-12-17T15:48:20.998Z,21.90
2022-12-17T15:50:49.213Z,21.47
2022-12-17T15:53:16.317Z,20.73
2022-12-17T15:55:43.422Z,20.70
2022-12-17T15:58:13.990Z,19.60
2022-12-17T16:00:43.030Z,19.80
2022-12-17T16:03:10.132Z,20.30
2022-12-17T16:05:37.387Z,20.77
2022-12-17T16:08:04.634Z,20.67
2022-12-17T16:10:31.783Z,20.13
2022-12-17T16:12:59.503Z,20.20
2022-12-17T16:15:26.648Z,20.87
2022-12-17T16:17:53.705Z,20.10
2022-12-17T16:20:23.320Z,19.93
2022-12-17T16:22:50.476Z,20.67
2022-12-17T16:25:17.497Z,20.67
2022-12-17T16:27:44.480Z,21.63
2022-12-17T16:30:12.432Z,20.63
2022-12-17T16:32:39.426Z,20.47
2022-12-17T16:35:07.301Z,19.00
2022-12-17T16:37:34.335Z,20.10
2022-12-17T16:40:01.337Z,19.10
2022-12-17T16:42:28.553Z,20.33
2022-12-17T16:44:55.477Z,20.03
2022-12-17T16:47:22.471Z,18.57
2022-12-17T16:49:50.903Z,19.87
2022-12-17T16:52:18.061Z,18.87
2022-12-17T16:54:45.159Z,17.93
2022-12-17T16:57:12.106Z,18.67
2022-12-17T16:59:39.092Z,18.73
2022-12-17T17:02:12.509Z,19.47
2022-12-17T17:04:39.656Z,17.43
2022-12-17T17:07:06.733Z,18.70
2022-12-17T17:09:33.692Z,19.63
2022-12-17T17:12:00.651Z,18.17
2022-12-17T17:14:27.844Z,17.57
2022-12-17T17:16:54.882Z,18.20
2022-12-17T17:19:21.862Z,18.43
2022-12-17T17:21:52.669Z,17.10
2022-12-17T17:24:22.306Z,17.77
2022-12-17T17:26:50.878Z,16.50
2022-12-17T17:29:18.617Z,14.40
2022-12-17T17:32:09.099Z,15.67
2022-12-17T17:34:32.788Z,14.60
2022-12-17T17:36:59.956Z,16.77
2022-12-17T17:39:27.565Z,16.47
2022-12-17T17:41:54.557Z,16.13
2022-12-17T17:44:21.688Z,15.23
2022-12-17T17:46:48.703Z,15.30
2022-12-17T17:49:16.268Z,14.93
2022-12-17T17:54:31.749Z,13.00
2022-12-17T17:56:58.731Z,14.20
2022-12-17T17:59:32.859Z,15.17
2022-12-17T18:02:01.261Z,15.27
2022-12-17T18:04:28.829Z,13.27
2022-12-17T18:07:24.131Z,13.07
2022-12-17T18:09:43.454Z,14.30
2022-12-17T18:12:28.995Z,14.13
2022-12-17T18:17:50.259Z,15.13
2022-12-17T18:20:17.959Z,13.67
2022-12-17T18:22:46.519Z,13.73
2022-12-17T18:25:15.065Z,13.83
2022-12-17T18:27:42.588Z,15.20
2022-12-17T18:30:10.687Z,14.87
2022-12-17T18:32:37.664Z,14.97
2022-12-17T18:35:05.157Z,15.17
2022-12-17T18:37:32.160Z,13.57
2022-12-17T18:39:59.116Z,14.40
2022-12-17T18:42:44.883Z,15.07
2022-12-17T18:45:13.279Z,14.63
2022-12-17T18:47:40.322Z,14.23
2022-12-17T18:50:07.758Z,13.80
2022-12-17T18:52:34.806Z,13.63
2022-12-17T18:55:01.820Z,13.30
2022-12-17T18:57:28.793Z,13.97
2022-12-17T18:59:55.904Z,14.40
2022-12-17T19:02:23.041Z,12.53
2022-12-17T19:04:50.033Z,13.10
2022-12-17T19:07:17.022Z,13.60
2022-12-17T19:09:44.004Z,14.33
2022-12-17T19:12:11.270Z,13.20
2022-12-17T19:14:38.995Z,13.47
2022-12-17T19:17:06.288Z,14.13
2022-12-17T19:19:33.731Z,12.90
2022-12-17T19:22:01.056Z,12.87
2022-12-17T19:24:28.123Z,13.80
2022-12-17T19:26:55.632Z,14.83
2022-12-17T19:29:22.906Z,15.97
2022-12-17T19:31:50.171Z,14.90
2022-12-17T19:34:19.475Z,14.60
2022-12-17T19:36:47.718Z,14.57
2022-12-17T19:39:18.431Z,13.53
2022-12-17T19:41:45.897Z,13.80
2022-12-17T19:44:15.998Z,13.37
2022-12-17T19:46:43.680Z,13.83
2022-12-17T19:49:13.337Z,13.37
2022-12-17T19:51:43.088Z,14.67
2022-12-17T19:54:15.328Z,14.37
2022-12-17T19:56:44.327Z,13.97
2022-12-17T19:59:12.671Z,12.80
2022-12-17T20:01:46.398Z,13.73
2022-12-17T20:04:16.419Z,14.33
2022-12-17T20:06:44.769Z,14.87
2022-12-17T20:09:12.166Z,14.20
2022-12-17T20:11:39.225Z,14.73
2022-12-17T20:14:20.777Z,14.63
2022-12-17T20:16:52.218Z,15.37
2022-12-17T20:19:23.536Z,14.27
2022-12-17T20:21:51.652Z,16.10
2022-12-17T20:24:19.657Z,14.77
2022-12-17T20:26:51.491Z,15.17
2022-12-17T20:29:24.706Z,16.03
2022-12-17T20:31:53.938Z,15.20
2022-12-17T20:34:21.515Z,16.83
2022-12-17T20:36:49.959Z,16.20
2022-12-17T20:39:20.740Z,14.30
2022-12-17T20:41:51.784Z,15.07
2022-12-17T20:44:18.760Z,15.00
2022-12-17T20:46:45.743Z,16.00
2022-12-17T20:49:13.799Z,16.27
2022-12-17T20:51:40.977Z,17.17
2022-12-17T20:54:08.555Z,15.13
2022-12-17T20:56:36.276Z,14.87
2022-12-17T20:59:08.586Z,14.50
2022-12-17T21:01:37.275Z,16.33
2022-12-17T21:04:08.671Z,15.33
2022-12-17T21:06:42.451Z,14.53
2022-12-17T21:09:10.410Z,14.53
2022-12-17T21:11:39.092Z,15.27
2022-12-17T21:14:12.969Z,14.87
2022-12-17T21:16:41.776Z,14.30
2022-12-17T21:19:13.644Z,15.80
2022-12-17T21:21:40.783Z,14.73
2022-12-17T21:24:09.078Z,14.50
2022-12-17T21:26:40.656Z,15.00
2022-12-17T21:29:10.100Z,14.70
2022-12-17T21:31:41.626Z,14.30
2022-12-17T21:34:14.313Z,14.53
2022-12-17T21:36:42.133Z,14.43
2022-12-17T21:39:12.476Z,13.57
2022-12-17T21:41:44.440Z,13.30
2022-12-17T21:44:14.485Z,13.30
2022-12-17T21:46:43.239Z,13.60
2022-12-17T21:49:11.004Z,14.23
2022-12-17T21:51:38.214Z,13.37
2022-12-17T21:54:08.603Z,13.60
2022-12-17T21:56:36.589Z,12.13
2022-12-17T21:59:04.347Z,13.73
2022-12-17T22:01:34.070Z,13.70
2022-12-17T22:04:04.551Z,14.20
2022-12-17T22:06:42.768Z,13.53
2022-12-17T22:09:25.897Z,13.27
2022-12-17T22:12:38.851Z,13.63
2022-12-17T22:15:08.275Z,14.37
2022-12-17T22:17:35.813Z,12.87
2022-12-17T22:20:03.520Z,14.07
2022-12-17T22:22:30.877Z,12.00
2022-12-17T22:25:00.848Z,13.10
2022-12-17T22:27:31.826Z,13.17
2022-12-17T22:30:17.288Z,13.27
2022-12-17T22:32:59.559Z,14.73
2022-12-17T22:37:22.806Z,13.53
2022-12-17T22:44:06.275Z,12.20
2022-12-17T22:44:37.447Z,12.73
2022-12-17T22:44:43.345Z,13.10
2022-12-17T22:46:51.438Z,13.67
2022-12-17T22:49:19.405Z,14.00
2022-12-17T22:51:46.810Z,15.00
2022-12-17T22:54:14.612Z,14.10
2022-12-17T22:57:00.705Z,14.17
2022-12-17T22:59:30.887Z,13.53
2022-12-17T23:01:57.892Z,14.10
2022-12-17T23:04:25.029Z,15.30
2022-12-17T23:06:52.090Z,13.67
2022-12-17T23:09:19.907Z,13.97
2022-12-17T23:11:48.703Z,14.73
2022-12-17T23:14:17.463Z,14.43
2022-12-17T23:16:45.022Z,14.43
2022-12-17T23:19:12.766Z,14.17
2022-12-17T23:21:40.338Z,13.67
2022-12-17T23:24:07.983Z,12.00
2022-12-17T23:26:37.188Z,13.83
2022-12-17T23:29:08.263Z,11.77
2022-12-17T23:31:40.102Z,13.60
2022-12-17T23:34:08.099Z,13.17
2022-12-17T23:36:36.244Z,14.20
2022-12-17T23:39:03.815Z,13.73
2022-12-17T23:41:31.718Z,14.13
2022-12-17T23:43:59.527Z,13.20
2022-12-17T23:46:28.708Z,12.70
2022-12-17T23:48:55.896Z,13.07
2022-12-17T23:51:25.088Z,13.23
2022-12-17T23:53:52.418Z,14.27
2022-12-17T23:56:27.405Z,14.03
2022-12-17T23:58:58.756Z,14.97
